Aeroporto :
LOGIN :

Iscrizione | Disclaimer

   EN    FR    IT 

 










Sommario :    VFR   VFR Marginale   IFR   IFR Intensivo   IFR Molto Intensivo
Visibilità : 
Base nubi : 
>= 8 km
>= 3000ft
5 / 8 km
1000 / 3000 ft
1500m / 5 km
500 / 1000 ft
800 / 1500m
200 / 500 ft
< 800m
< 200 ft
Simboli :   Temporali  Nebbia  Neve Forte  Precipitazioni Forti  Vento > 20 kt
SIGMETs :   Varie  Temporali  Ghiacco  Turbolenza  Onda orograficha  Ceneri Vulcaniche






- Altitudine del aeroporto : 13 ft
- Codice IATA : LYX


EGMD - Lydd

ULTIMO METAR :
  • 090920Z 32025KT 9999 FEW025 SCT029 09/04 Q1004

METARs OBSOLETI :
  • 090850Z 32023KT 9999 FEW026 BKN030 09/05 Q1003
  • 090820Z 32022KT 9999 SCT025 BKN031 09/05 Q1002
  • 090750Z AUTO 32020KT 9999 SCT023/// BKN039/// 08/05 Q1000
  • 090720Z AUTO 32019KT 9999 FEW017/// SCT023/// OVC041/// 08/06 Q0999
  • 090650Z AUTO 31017KT 9999 SCT013/// BKN018/// OVC029/// 08/07 Q0998

TAF TAF EGMD
Valido dal 09 a 09 ore il 09 a 18 ore UTC


090755Z 0909/0918 30018G28KT 9999 SCT025
BECMG 0913/0916 32012KT
ATIS : +44 1797 322 422



MetMap, La meteo Aeronautica in un colpo d'occhio ! - Copyright ORBIFLY Dicembre 2007 - Disclaimer

ORBIFLY MET'MAP TEAM :

Programmazione e sviluppo : Alexandra Zaïnal
Concezione : Baudouin d'Aumeries
Aiuto per la programmazione : Marc-Olivier Méhu
Supporto tecnico e logistico : Manuel Goepfert
Aiuto per la traduzione : Arnaldo La Scala

Contatto : metmap@orbifly.com




FONTI E CREDITI :

   NOAA